createdAt,value
2022-08-25T00:00:29.550Z,82.26
2022-08-25T00:03:03.048Z,82.64
2022-08-25T00:05:38.196Z,82.36
2022-08-25T00:08:11.468Z,82.10
2022-08-25T00:10:46.231Z,82.46
2022-08-25T00:13:36.736Z,83.29
2022-08-25T00:16:10.266Z,82.69
2022-08-25T00:18:45.736Z,83.20
2022-08-25T00:21:19.368Z,83.75
2022-08-25T00:23:52.677Z,83.48
2022-08-25T00:26:27.721Z,83.28
2022-08-25T00:29:01.864Z,83.49
2022-08-25T00:31:38.464Z,83.85
2022-08-25T00:34:16.719Z,83.50
2022-08-25T00:36:51.806Z,83.85
2022-08-25T00:39:26.195Z,84.23
2022-08-25T00:42:01.654Z,83.35
2022-08-25T00:44:35.525Z,83.77
2022-08-25T00:47:10.145Z,83.85
2022-08-25T00:49:47.995Z,84.05
2022-08-25T00:52:25.645Z,84.83
2022-08-25T00:55:07.710Z,84.58
2022-08-25T00:57:48.468Z,84.80
2022-08-25T01:00:27.460Z,84.43
2022-08-25T01:03:01.712Z,84.90
2022-08-25T01:05:35.461Z,84.45
2022-08-25T01:08:10.166Z,84.32
2022-08-25T01:10:45.810Z,84.85
2022-08-25T01:13:24.278Z,85.10
2022-08-25T01:15:58.979Z,84.96
2022-08-25T01:18:46.363Z,85.13
2022-08-25T01:21:24.465Z,85.48
2022-08-25T01:24:01.082Z,84.97
2022-08-25T01:26:36.767Z,85.69
2022-08-25T01:29:25.459Z,85.16
2022-08-25T01:32:03.518Z,85.49
2022-08-25T01:34:41.395Z,85.92
2022-08-25T01:37:19.161Z,86.00
2022-08-25T01:39:52.340Z,85.95
2022-08-25T01:42:43.619Z,86.16
2022-08-25T01:45:16.847Z,86.25
2022-08-25T01:47:50.057Z,85.92
2022-08-25T01:50:23.137Z,85.93
2022-08-25T01:53:04.598Z,86.26
2022-08-25T01:55:52.875Z,86.58
2022-08-25T01:58:30.147Z,87.25
2022-08-25T02:01:07.529Z,87.52
2022-08-25T02:03:44.597Z,87.32
2022-08-25T02:06:28.672Z,88.47
2022-08-25T02:09:08.619Z,88.32
2022-08-25T02:11:46.153Z,89.17
2022-08-25T02:14:20.507Z,89.35
2022-08-25T02:16:55.020Z,89.22
2022-08-25T02:19:30.949Z,89.52
2022-08-25T02:22:04.831Z,89.34
2022-08-25T02:24:39.284Z,88.79
2022-08-25T02:27:12.458Z,89.15
2022-08-25T02:29:45.737Z,88.80
2022-08-25T02:32:18.802Z,88.70
2022-08-25T02:34:51.877Z,88.51
2022-08-25T02:37:24.950Z,88.92
2022-08-25T02:40:00.102Z,88.45
2022-08-25T02:42:33.451Z,87.94
2022-08-25T02:45:08.477Z,87.94
2022-08-25T02:47:41.814Z,87.37
2022-08-25T02:50:15.055Z,86.59
2022-08-25T02:52:50.481Z,87.14
2022-08-25T02:55:25.019Z,86.97
2022-08-25T02:57:58.119Z,87.99
2022-08-25T03:00:31.199Z,87.82
2022-08-25T03:03:06.280Z,88.20
2022-08-25T03:05:39.741Z,87.64
2022-08-25T03:08:13.535Z,88.10
2022-08-25T03:10:47.943Z,88.65
2022-08-25T03:13:25.081Z,89.03
2022-08-25T03:15:58.145Z,89.36
2022-08-25T03:18:32.364Z,89.57
2022-08-25T03:21:05.747Z,89.09
2022-08-25T03:23:39.897Z,89.07
2022-08-25T03:26:32.087Z,89.32
2022-08-25T03:29:05.860Z,88.99
2022-08-25T03:31:39.270Z,88.47
2022-08-25T03:34:12.543Z,88.42
2022-08-25T03:36:47.681Z,88.18
2022-08-25T03:39:23.299Z,88.29
2022-08-25T03:41:57.738Z,88.35
2022-08-25T03:44:30.840Z,88.11
2022-08-25T03:47:04.345Z,88.97
2022-08-25T03:49:37.551Z,89.24
2022-08-25T03:52:10.695Z,89.11
2022-08-25T03:54:43.773Z,88.78
2022-08-25T03:57:20.627Z,88.74
2022-08-25T03:59:53.671Z,88.68
2022-08-25T04:02:26.875Z,89.16
2022-08-25T04:04:59.953Z,89.07
2022-08-25T04:07:33.265Z,89.11
2022-08-25T04:10:07.134Z,90.16
2022-08-25T04:12:41.799Z,90.06
2022-08-25T04:15:14.918Z,89.73
2022-08-25T04:17:48.007Z,89.89
2022-08-25T04:20:24.191Z,90.11
2022-08-25T04:23:00.594Z,90.79
2022-08-25T04:25:33.858Z,91.12
2022-08-25T04:28:09.009Z,91.18
2022-08-25T04:30:44.104Z,91.50
2022-08-25T04:33:17.158Z,90.94
2022-08-25T04:35:51.702Z,90.46
2022-08-25T04:38:24.759Z,90.03
2022-08-25T04:40:58.745Z,90.55
2022-08-25T04:43:34.847Z,91.10
2022-08-25T04:46:09.325Z,93.60
2022-08-25T04:48:43.559Z,93.49
2022-08-25T04:51:21.071Z,93.57
2022-08-25T04:53:56.879Z,93.14
2022-08-25T04:56:32.956Z,93.73
2022-08-25T04:59:11.857Z,93.73
2022-08-25T05:01:47.808Z,91.77
2022-08-25T05:04:28.398Z,91.73
2022-08-25T05:07:03.764Z,90.86
2022-08-25T05:09:38.050Z,90.23
2022-08-25T05:12:12.643Z,89.32
2022-08-25T05:14:48.745Z,88.92
2022-08-25T05:17:22.963Z,89.31
2022-08-25T05:19:57.145Z,90.15
2022-08-25T05:22:31.429Z,88.95
2022-08-25T05:25:05.693Z,88.96
2022-08-25T05:27:39.135Z,87.77
2022-08-25T05:30:14.819Z,86.18
2022-08-25T05:32:49.204Z,84.99
2022-08-25T05:35:24.712Z,82.41
2022-08-25T05:37:58.516Z,80.35
2022-08-25T05:40:33.121Z,78.63
2022-08-25T05:43:06.787Z,76.59
2022-08-25T05:45:41.986Z,74.32
2022-08-25T05:48:15.797Z,71.94
2022-08-25T05:50:54.087Z,72.49
2022-08-25T05:53:31.049Z,70.19
2022-08-25T05:56:08.925Z,69.34
2022-08-25T05:58:44.805Z,68.25
2022-08-25T06:01:47.639Z,66.79
2022-08-25T06:04:22.718Z,66.70
2022-08-25T06:06:56.905Z,65.35
2022-08-25T06:09:31.479Z,64.51
2022-08-25T06:12:06.437Z,62.54
2022-08-25T06:14:40.660Z,61.00
2022-08-25T06:17:15.134Z,60.86
2022-08-25T06:19:48.224Z,60.96
2022-08-25T06:22:21.413Z,62.45
2022-08-25T06:24:54.978Z,60.28
2022-08-25T06:27:28.087Z,59.73
2022-08-25T06:30:07.640Z,58.85
2022-08-25T06:32:45.650Z,58.99
2022-08-25T06:35:21.062Z,57.64
2022-08-25T06:37:54.775Z,58.18
2022-08-25T06:40:28.051Z,58.33
2022-08-25T06:43:01.434Z,59.47
2022-08-25T06:45:34.551Z,57.88
2022-08-25T06:48:09.283Z,57.00
2022-08-25T06:50:43.321Z,57.61
2022-08-25T06:53:16.476Z,58.18
2022-08-25T06:55:59.812Z,57.83
2022-08-25T06:58:35.432Z,57.16
2022-08-25T07:01:14.989Z,55.09
2022-08-25T07:03:59.126Z,54.35
2022-08-25T07:06:36.070Z,53.89
2022-08-25T07:09:10.904Z,54.85
2022-08-25T07:11:45.230Z,53.46
2022-08-25T07:14:19.678Z,52.70
2022-08-25T07:16:52.855Z,51.41
2022-08-25T07:19:27.359Z,50.38
2022-08-25T07:22:00.476Z,50.59
2022-08-25T07:24:34.186Z,49.26
2022-08-25T07:27:07.511Z,47.82
2022-08-25T07:29:42.667Z,47.39
2022-08-25T07:32:15.927Z,47.31
2022-08-25T07:35:07.869Z,45.55
2022-08-25T07:37:49.195Z,44.53
2022-08-25T07:40:25.383Z,45.11
2022-08-25T07:43:02.060Z,47.54
2022-08-25T07:45:42.097Z,47.60
2022-08-25T07:48:22.502Z,46.71
2022-08-25T07:50:57.559Z,45.37
2022-08-25T07:53:30.750Z,45.58
2022-08-25T07:58:44.835Z,45.14
2022-08-25T08:01:20.962Z,45.57
2022-08-25T08:03:54.187Z,45.24
2022-08-25T08:06:28.747Z,45.21
2022-08-25T08:09:02.799Z,45.04
2022-08-25T08:11:45.170Z,46.57
2022-08-25T08:14:26.846Z,45.04
2022-08-25T08:16:59.954Z,44.99
2022-08-25T08:19:33.043Z,45.60
2022-08-25T08:22:11.145Z,45.55
2022-08-25T08:24:54.534Z,45.35
2022-08-25T08:27:29.595Z,45.09
2022-08-25T08:30:02.969Z,44.13
2022-08-25T08:32:53.665Z,45.43
2022-08-25T08:35:29.793Z,45.19
2022-08-25T08:38:10.328Z,45.64
2022-08-25T08:41:23.379Z,43.77
2022-08-25T08:44:08.248Z,42.89
2022-08-25T08:46:52.481Z,43.60
2022-08-25T08:49:37.440Z,43.48
2022-08-25T08:52:12.438Z,42.17
2022-08-25T08:54:51.831Z,43.26
2022-08-25T08:57:29.841Z,42.93
2022-08-25T09:00:08.263Z,43.21
2022-08-25T09:02:51.657Z,43.24
2022-08-25T09:05:29.747Z,42.16
2022-08-25T09:08:07.917Z,42.28
2022-08-25T09:10:57.561Z,42.59
2022-08-25T09:13:45.552Z,42.50
2022-08-25T09:16:56.343Z,42.83
2022-08-25T09:19:56.021Z,43.16
2022-08-25T09:22:47.553Z,42.30
2022-08-25T09:28:32.040Z,42.30
2022-08-25T09:31:14.688Z,43.25
2022-08-25T09:33:48.006Z,42.75
2022-08-25T09:36:21.119Z,42.36
2022-08-25T09:38:56.414Z,41.92
2022-08-25T09:41:46.970Z,43.00
2022-08-25T09:44:55.993Z,42.36
2022-08-25T09:47:29.498Z,42.35
2022-08-25T09:50:05.640Z,41.72
2022-08-25T09:52:41.315Z,41.76
2022-08-25T09:55:32.673Z,41.51
2022-08-25T09:58:19.445Z,42.83
2022-08-25T10:01:15.848Z,42.78
2022-08-25T10:03:59.330Z,42.24
2022-08-25T10:06:44.270Z,41.94
2022-08-25T10:09:29.390Z,42.59
2022-08-25T10:12:04.902Z,42.92
2022-08-25T10:14:44.283Z,42.67
2022-08-25T10:17:27.458Z,42.19
2022-08-25T10:20:18.361Z,42.72
2022-08-25T10:22:53.894Z,42.47
2022-08-25T10:25:31.254Z,41.88
2022-08-25T10:28:13.410Z,41.98
2022-08-25T10:30:58.915Z,42.17
2022-08-25T10:33:47.567Z,42.64
2022-08-25T10:36:42.987Z,42.83
2022-08-25T10:39:36.721Z,43.30
2022-08-25T10:42:30.581Z,42.87
2022-08-25T10:45:36.563Z,41.70
2022-08-25T10:48:42.833Z,40.86
2022-08-25T10:51:41.886Z,41.42
2022-08-25T10:54:34.344Z,41.10
2022-08-25T10:57:20.863Z,40.99
2022-08-25T11:00:03.159Z,40.48
2022-08-25T11:03:03.337Z,40.86
2022-08-25T11:05:45.159Z,40.60
2022-08-25T11:08:24.778Z,40.34
2022-08-25T11:11:05.465Z,40.35
2022-08-25T11:13:45.529Z,40.32
2022-08-25T11:16:28.972Z,40.42
2022-08-25T11:19:10.291Z,39.99
2022-08-25T11:21:52.363Z,39.66
2022-08-25T11:24:44.109Z,37.96
2022-08-25T11:27:24.359Z,38.64
2022-08-25T11:30:07.072Z,39.97
2022-08-25T11:32:41.663Z,40.39
2022-08-25T11:35:18.303Z,41.14
2022-08-25T11:38:19.323Z,41.70
2022-08-25T11:41:11.004Z,41.51
2022-08-25T11:44:15.229Z,41.48
2022-08-25T11:47:21.074Z,41.60
2022-08-25T11:49:59.585Z,40.73
2022-08-25T11:52:50.998Z,41.16
2022-08-25T11:55:47.282Z,40.68
2022-08-25T11:58:41.855Z,40.58
2022-08-25T12:02:06.458Z,39.87
2022-08-25T12:04:44.345Z,38.96
2022-08-25T12:07:29.370Z,39.92
2022-08-25T12:10:21.761Z,39.79
2022-08-25T12:13:29.107Z,40.67
2022-08-25T12:16:02.706Z,38.99
2022-08-25T12:18:50.491Z,38.79
2022-08-25T12:21:33.866Z,39.45
2022-08-25T12:24:16.412Z,39.84
2022-08-25T12:26:58.680Z,39.38
2022-08-25T12:29:42.166Z,39.58
2022-08-25T12:32:39.397Z,39.73
2022-08-25T12:35:29.541Z,38.94
2022-08-25T12:38:10.414Z,38.81
2022-08-25T12:41:03.623Z,38.38
2022-08-25T12:43:40.598Z,37.69
2022-08-25T12:46:39.420Z,37.02
2022-08-25T12:49:31.020Z,37.64
2022-08-25T12:52:11.052Z,37.40
2022-08-25T12:54:50.157Z,38.46
2022-08-25T12:57:43.029Z,38.68
2022-08-25T13:00:22.339Z,38.27
2022-08-25T13:04:01.727Z,37.47
2022-08-25T13:06:51.633Z,38.47
2022-08-25T13:10:20.238Z,37.22
2022-08-25T13:13:02.561Z,37.55
2022-08-25T13:15:44.544Z,37.36
2022-08-25T13:18:24.924Z,38.48
2022-08-25T13:21:12.589Z,38.04
2022-08-25T13:23:50.180Z,37.43
2022-08-25T13:26:30.183Z,38.02
2022-08-25T13:29:17.742Z,37.39
2022-08-25T13:31:59.005Z,36.71
2022-08-25T13:34:37.796Z,37.08
2022-08-25T13:37:30.558Z,37.18
2022-08-25T13:40:17.716Z,37.47
2022-08-25T13:42:56.212Z,37.10
2022-08-25T13:45:34.650Z,37.18
2022-08-25T13:48:33.263Z,36.86
2022-08-25T13:51:19.532Z,37.11
2022-08-25T13:54:00.317Z,37.27
2022-08-25T13:56:40.669Z,36.80
2022-08-25T13:59:24.573Z,36.99
2022-08-25T14:01:59.773Z,37.46
2022-08-25T14:04:51.047Z,38.18
2022-08-25T14:07:34.140Z,37.42
2022-08-25T14:10:13.163Z,38.34
2022-08-25T14:12:49.730Z,37.67
2022-08-25T14:15:33.456Z,37.45
2022-08-25T14:18:14.075Z,38.09
2022-08-25T14:20:51.451Z,38.83
2022-08-25T14:23:27.721Z,38.50
2022-08-25T14:26:02.169Z,38.78
2022-08-25T14:28:36.403Z,40.61
2022-08-25T14:31:13.782Z,39.81
2022-08-25T14:34:01.033Z,39.46
2022-08-25T14:36:35.966Z,38.79
2022-08-25T14:39:09.362Z,37.79
2022-08-25T14:41:48.715Z,37.84
2022-08-25T14:44:27.367Z,37.40
2022-08-25T14:47:02.683Z,36.30
2022-08-25T14:49:43.939Z,37.05
2022-08-25T14:52:22.511Z,36.66
2022-08-25T14:54:57.219Z,37.29
2022-08-25T14:57:31.825Z,37.57
2022-08-25T15:00:08.951Z,38.25
2022-08-25T15:02:44.962Z,37.96
2022-08-25T15:05:28.268Z,37.89
2022-08-25T15:08:19.452Z,37.11
2022-08-25T15:10:53.998Z,37.35
2022-08-25T15:13:28.627Z,36.92
2022-08-25T15:16:01.898Z,36.91
2022-08-25T15:18:36.553Z,36.99
2022-08-25T15:21:09.659Z,36.93
2022-08-25T15:23:44.668Z,37.40
2022-08-25T15:26:19.230Z,37.13
2022-08-25T15:28:53.731Z,37.77
2022-08-25T15:31:26.905Z,38.43
2022-08-25T15:34:00.393Z,37.65
2022-08-25T15:36:36.134Z,37.86
2022-08-25T15:39:12.044Z,37.86
2022-08-25T15:41:47.341Z,37.94
2022-08-25T15:44:29.026Z,37.51
2022-08-25T15:47:02.772Z,38.00
2022-08-25T15:49:36.955Z,36.69
2022-08-25T15:52:12.175Z,36.09
2022-08-25T15:54:46.208Z,36.40
2022-08-25T15:57:24.373Z,36.49
2022-08-25T15:59:59.422Z,37.09
2022-08-25T16:02:34.627Z,35.92
2022-08-25T16:05:10.230Z,36.82
2022-08-25T16:07:46.028Z,37.34
2022-08-25T16:10:24.737Z,37.67
2022-08-25T16:13:29.050Z,37.50
2022-08-25T16:16:48.378Z,38.51
2022-08-25T16:19:21.585Z,38.32
2022-08-25T16:21:54.962Z,38.45
2022-08-25T16:24:28.176Z,38.91
2022-08-25T16:27:11.132Z,38.30
2022-08-25T16:29:45.839Z,38.52
2022-08-25T16:32:20.930Z,38.91
2022-08-25T16:34:54.255Z,38.90
2022-08-25T16:37:27.388Z,39.88
2022-08-25T16:40:00.602Z,39.99
2022-08-25T16:42:33.847Z,40.81
2022-08-25T16:45:08.189Z,39.79
2022-08-25T16:47:43.325Z,40.19
2022-08-25T16:50:18.926Z,40.61
2022-08-25T16:53:11.900Z,41.56
2022-08-25T16:55:46.448Z,41.75
2022-08-25T16:58:22.256Z,42.10
2022-08-25T17:00:57.869Z,42.08
2022-08-25T17:03:34.601Z,41.66
2022-08-25T17:06:10.771Z,40.88
2022-08-25T17:08:45.421Z,41.45
2022-08-25T17:11:23.460Z,42.43
2022-08-25T17:14:01.829Z,42.47
2022-08-25T17:16:39.165Z,42.21
2022-08-25T17:19:18.576Z,42.50
2022-08-25T17:21:54.985Z,43.31
2022-08-25T17:24:30.493Z,43.62
2022-08-25T17:27:06.914Z,43.93
2022-08-25T17:29:43.843Z,44.17
2022-08-25T17:32:19.009Z,43.14
2022-08-25T17:34:54.948Z,44.52
2022-08-25T17:37:29.535Z,44.92
2022-08-25T17:40:07.182Z,45.90
2022-08-25T17:42:42.009Z,46.31
2022-08-25T17:45:17.479Z,47.69
2022-08-25T17:47:53.025Z,47.90
2022-08-25T17:50:29.748Z,47.97
2022-08-25T17:53:05.477Z,48.44
2022-08-25T17:55:42.352Z,49.56
2022-08-25T17:58:19.521Z,50.35
2022-08-25T18:00:54.186Z,50.04
2022-08-25T18:03:29.556Z,50.18
2022-08-25T18:06:05.606Z,51.17
2022-08-25T18:08:38.733Z,51.65
2022-08-25T18:11:14.400Z,51.82
2022-08-25T18:13:47.559Z,52.45
2022-08-25T18:16:24.682Z,52.82
2022-08-25T18:18:57.950Z,53.24
2022-08-25T18:21:32.663Z,53.49
2022-08-25T18:24:06.513Z,53.70
2022-08-25T18:26:39.838Z,54.11
2022-08-25T18:29:13.316Z,54.58
2022-08-25T18:31:48.621Z,54.92
2022-08-25T18:34:24.018Z,54.91
2022-08-25T18:37:19.189Z,55.26
2022-08-25T18:40:09.876Z,54.98
2022-08-25T18:42:43.161Z,55.86
2022-08-25T18:45:16.342Z,56.08
2022-08-25T18:47:53.192Z,56.08
2022-08-25T18:50:28.498Z,56.53
2022-08-25T18:53:03.711Z,56.77
2022-08-25T18:55:40.359Z,57.26
2022-08-25T18:58:14.309Z,58.06
2022-08-25T19:00:47.667Z,58.49
2022-08-25T19:03:23.435Z,58.57
2022-08-25T19:05:57.958Z,58.77
2022-08-25T19:08:32.434Z,59.52
2022-08-25T19:11:06.080Z,60.33
2022-08-25T19:13:40.208Z,60.32
2022-08-25T19:16:20.532Z,60.32
2022-08-25T19:18:54.117Z,60.30
2022-08-25T19:21:27.276Z,60.64
2022-08-25T19:24:03.087Z,60.26
2022-08-25T19:26:37.433Z,61.12
2022-08-25T19:29:15.890Z,61.39
2022-08-25T19:31:50.705Z,61.76
2022-08-25T19:34:30.408Z,61.77
2022-08-25T19:37:06.483Z,62.20
2022-08-25T19:39:52.896Z,62.07
2022-08-25T19:42:36.700Z,62.44
2022-08-25T19:45:13.581Z,62.65
2022-08-25T19:47:46.948Z,62.93
2022-08-25T19:50:21.617Z,63.12
2022-08-25T19:52:54.986Z,63.58
2022-08-25T19:55:29.648Z,63.74
2022-08-25T19:58:03.747Z,64.15
2022-08-25T20:00:39.483Z,64.53
2022-08-25T20:03:12.654Z,64.50
2022-08-25T20:05:46.243Z,65.54
2022-08-25T20:08:19.571Z,65.45
2022-08-25T20:11:04.526Z,65.17
2022-08-25T20:13:37.755Z,65.31
2022-08-25T20:16:11.157Z,65.64
2022-08-25T20:18:44.309Z,66.22
2022-08-25T20:21:17.457Z,66.54
2022-08-25T20:24:07.911Z,67.40
2022-08-25T20:26:44.189Z,67.66
2022-08-25T20:29:17.345Z,67.81
2022-08-25T20:31:50.470Z,68.29
2022-08-25T20:34:23.922Z,68.80
2022-08-25T20:36:57.399Z,68.70
2022-08-25T20:39:30.634Z,68.69
2022-08-25T20:42:06.078Z,69.25
2022-08-25T20:44:42.117Z,69.58
2022-08-25T20:47:15.924Z,69.52
2022-08-25T20:49:50.242Z,70.18
2022-08-25T20:52:23.573Z,70.11
2022-08-25T20:54:57.410Z,70.64
2022-08-25T20:57:33.200Z,70.74
2022-08-25T21:00:08.923Z,70.87
2022-08-25T21:02:42.770Z,71.16
2022-08-25T21:05:16.261Z,71.18
2022-08-25T21:07:49.448Z,71.38
2022-08-25T21:10:22.807Z,71.80
2022-08-25T21:12:57.268Z,71.88
2022-08-25T21:15:30.409Z,71.82
2022-08-25T21:18:04.122Z,71.96
2022-08-25T21:20:37.330Z,72.08
2022-08-25T21:23:10.547Z,72.24
2022-08-25T21:25:45.654Z,72.52
2022-08-25T21:28:20.331Z,72.74
2022-08-25T21:30:54.331Z,73.78
2022-08-25T21:33:29.451Z,73.70
2022-08-25T21:36:02.714Z,73.96
2022-08-25T21:38:36.873Z,73.72
2022-08-25T21:41:15.515Z,73.77
2022-08-25T21:43:51.275Z,73.89
2022-08-25T21:46:27.669Z,73.91
2022-08-25T21:49:06.193Z,74.71
2022-08-25T21:51:42.532Z,74.38
2022-08-25T21:54:18.967Z,74.57
2022-08-25T21:57:00.290Z,75.01
2022-08-25T21:59:40.303Z,75.00
2022-08-25T22:02:19.277Z,75.03
2022-08-25T22:04:55.989Z,75.46
2022-08-25T22:07:29.150Z,75.66
2022-08-25T22:10:16.810Z,75.91
2022-08-25T22:12:51.287Z,76.28
2022-08-25T22:15:26.021Z,76.58
2022-08-25T22:17:59.106Z,76.49
2022-08-25T22:20:34.028Z,76.59
2022-08-25T22:23:07.235Z,77.11
2022-08-25T22:25:40.687Z,76.82
2022-08-25T22:28:14.947Z,76.96
2022-08-25T22:30:50.214Z,77.23
2022-08-25T22:33:23.404Z,77.39
2022-08-25T22:35:59.772Z,77.45
2022-08-25T22:38:33.279Z,77.73
2022-08-25T22:41:06.536Z,77.92
2022-08-25T22:43:40.041Z,78.02
2022-08-25T22:46:15.174Z,78.00
2022-08-25T22:48:51.501Z,78.40
2022-08-25T22:51:32.052Z,78.19
2022-08-25T22:54:09.589Z,78.53
2022-08-25T22:56:45.499Z,78.14
2022-08-25T22:59:22.068Z,78.37
2022-08-25T23:02:06.632Z,79.03
2022-08-25T23:04:43.551Z,79.54
2022-08-25T23:07:18.777Z,79.55
2022-08-25T23:09:54.226Z,79.81
2022-08-25T23:12:29.480Z,80.02
2022-08-25T23:15:04.269Z,80.23
2022-08-25T23:17:41.247Z,80.32
2022-08-25T23:20:29.336Z,80.52
2022-08-25T23:23:05.311Z,80.27
2022-08-25T23:25:43.496Z,80.08
2022-08-25T23:28:18.574Z,80.03
2022-08-25T23:30:57.313Z,80.13
2022-08-25T23:33:35.787Z,80.48
2022-08-25T23:36:13.512Z,80.00
2022-08-25T23:38:51.680Z,80.36
2022-08-25T23:41:28.277Z,80.56
2022-08-25T23:44:03.799Z,80.92
2022-08-25T23:46:38.575Z,80.59
2022-08-25T23:49:18.659Z,81.06
2022-08-25T23:51:55.958Z,81.18
2022-08-25T23:54:31.823Z,81.24
2022-08-25T23:57:06.957Z,81.32
2022-08-25T23:59:42.029Z,81.78
